Time;durP1;ratioP1;P1;durP2;ratioP2;P2;SDS_P1;SDS_P2;PMS_P1;PMS_P2;Temp;Humidity;BMP_temperature;BMP_pressure;BME280_temperature;BME280_humidity;BME280_pressure;Samples;Min_cycle;Max_cycle;Signal;HPM_P1;HPM_P2
2023/07/24 00:00:35;;;;;;;13.43;5.18;;;17.80;99.90;;;;;;4954598;28;20102;-66
2023/07/24 00:03:01;;;;;;;11.20;5.00;;;17.50;99.90;;;;;;4950395;28;20047;-66
2023/07/24 00:05:27;;;;;;;14.10;5.88;;;17.90;99.90;;;;;;4950572;28;20118;-65
2023/07/24 00:07:53;;;;;;;17.10;6.75;;;18.00;99.90;;;;;;4950031;28;20472;-66
2023/07/24 00:10:18;;;;;;;15.27;6.07;;;18.20;99.90;;;;;;4958365;28;20069;-66
2023/07/24 00:12:44;;;;;;;14.18;6.18;;;17.50;99.90;;;;;;4956244;28;20127;-65
2023/07/24 00:15:10;;;;;;;12.10;5.82;;;17.50;99.90;;;;;;4953483;28;20135;-64
2023/07/24 00:17:35;;;;;;;14.70;5.65;;;17.50;99.90;;;;;;4955281;28;20070;-67
2023/07/24 00:20:01;;;;;;;16.45;6.07;;;17.30;99.90;;;;;;4953686;28;20134;-66
2023/07/24 00:22:26;;;;;;;16.25;5.80;;;17.60;99.90;;;;;;4951516;28;20548;-66
2023/07/24 00:24:52;;;;;;;13.32;5.63;;;17.70;99.90;;;;;;4960680;28;20065;-64
2023/07/24 00:27:18;;;;;;;14.90;5.30;;;17.90;99.90;;;;;;4957178;28;20113;-66
2023/07/24 00:29:43;;;;;;;14.73;5.35;;;17.90;99.90;;;;;;4956235;28;20036;-66
2023/07/24 00:32:09;;;;;;;11.73;5.55;;;17.60;99.90;;;;;;4955555;28;20075;-65
2023/07/24 00:34:35;;;;;;;12.82;4.93;;;17.40;99.90;;;;;;4948992;28;20103;-65
2023/07/24 00:37:00;;;;;;;15.45;5.22;;;17.30;99.90;;;;;;4956547;28;20214;-66
2023/07/24 00:39:28;;;;;;;10.13;4.68;;;17.40;99.90;;;;;;4941918;28;20813;-66
2023/07/24 00:41:54;;;;;;;11.02;5.18;;;17.50;99.90;;;;;;4955188;28;20039;-66
2023/07/24 00:44:19;;;;;;;14.13;5.00;;;17.50;99.90;;;;;;4940188;28;20054;-66
2023/07/24 00:46:45;;;;;;;11.75;4.60;;;17.30;99.90;;;;;;4954866;28;20113;-66
2023/07/24 00:49:12;;;;;;;14.43;5.70;;;17.40;99.90;;;;;;4949884;28;20039;-67
2023/07/24 00:51:38;;;;;;;12.77;5.63;;;17.10;99.90;;;;;;4949629;28;20094;-66
2023/07/24 00:54:05;;;;;;;14.60;5.15;;;17.10;99.90;;;;;;4946485;28;20047;-66
2023/07/24 00:56:32;;;;;;;12.65;5.00;;;17.90;99.90;;;;;;4949165;28;20506;-67
2023/07/24 00:58:58;;;;;;;11.52;4.63;;;17.40;99.90;;;;;;4955536;28;20054;-67
2023/07/24 01:01:25;;;;;;;14.60;5.60;;;17.10;99.90;;;;;;4947622;28;20047;-66
2023/07/24 01:03:52;;;;;;;22.58;5.97;;;;;;;;;;4957452;28;20039;-67
2023/07/24 01:06:18;;;;;;;15.65;6.25;;;17.10;99.90;;;;;;4951152;28;20058;-67
2023/07/24 01:08:43;;;;;;;13.48;5.85;;;17.80;99.90;;;;;;4945579;28;20409;-67
2023/07/24 01:11:19;;;;;;;15.68;7.00;;;17.40;99.90;;;;;;4961846;28;20054;-67
2023/07/24 01:13:56;;;;;;;12.68;6.25;;;17.40;99.90;;;;;;4955305;28;20046;-66
2023/07/24 01:16:26;;;;;;;19.75;7.35;;;17.20;99.90;;;;;;4939436;28;20069;-66
2023/07/24 01:18:53;;;;;;;20.23;7.63;;;17.00;99.90;;;;;;4953321;28;20041;-65
2023/07/24 01:21:24;;;;;;;16.30;7.70;;;17.10;99.90;;;;;;4937810;28;20042;-65
2023/07/24 01:23:56;;;;;;;15.00;6.85;;;17.30;99.90;;;;;;4948599;28;20035;-66
2023/07/24 01:26:23;;;;;;;15.68;6.88;;;16.80;99.90;;;;;;4953048;28;20040;-66
2023/07/24 01:28:49;;;;;;;14.57;7.78;;;16.90;99.90;;;;;;4925343;28;20047;-66
2023/07/24 01:31:16;;;;;;;14.93;7.70;;;17.50;99.90;;;;;;4952838;28;20043;-66
2023/07/24 01:33:43;;;;;;;18.60;7.30;;;16.70;99.90;;;;;;4964260;28;20102;-64
2023/07/24 01:36:09;;;;;;;17.25;8.18;;;17.20;99.90;;;;;;4947412;28;20051;-65
2023/07/24 01:38:36;;;;;;;19.38;7.78;;;17.40;99.90;;;;;;4945116;28;20123;-66
2023/07/24 01:41:02;;;;;;;23.90;8.77;;;17.20;99.90;;;;;;4953197;28;20070;-66
2023/07/24 01:43:29;;;;;;;14.93;8.25;;;17.00;99.90;;;;;;4958243;28;20039;-66
2023/07/24 01:45:55;;;;;;;16.33;8.10;;;16.90;99.90;;;;;;4955484;28;20069;-66
2023/07/24 01:48:21;;;;;;;17.45;7.50;;;17.00;99.90;;;;;;4941121;28;20046;-66
2023/07/24 01:50:47;;;;;;;17.85;8.35;;;16.90;99.90;;;;;;4954360;28;20039;-65
2023/07/24 01:53:13;;;;;;;17.98;8.00;;;17.40;99.90;;;;;;4949988;28;20060;-65
2023/07/24 01:55:39;;;;;;;19.83;8.73;;;17.00;99.90;;;;;;4947624;28;20053;-66
2023/07/24 01:58:05;;;;;;;17.88;8.02;;;17.40;99.90;;;;;;4958540;28;20501;-65
2023/07/24 02:00:30;;;;;;;16.65;7.70;;;17.40;99.90;;;;;;4953867;28;20059;-66
2023/07/24 02:02:56;;;;;;;14.40;7.63;;;17.60;99.90;;;;;;4952719;28;20039;-66
2023/07/24 02:05:22;;;;;;;18.75;7.13;;;17.70;99.90;;;;;;4943716;28;20049;-65
2023/07/24 02:07:47;;;;;;;19.40;8.48;;;17.40;99.90;;;;;;4954469;28;20125;-65
2023/07/24 02:10:13;;;;;;;16.08;7.75;;;17.10;99.90;;;;;;4957781;28;20035;-66
2023/07/24 02:12:39;;;;;;;15.20;8.43;;;17.20;99.90;;;;;;4944105;28;20489;-65
2023/07/24 02:15:06;;;;;;;18.40;7.97;;;17.40;99.90;;;;;;4947134;28;20433;-65
2023/07/24 02:17:31;;;;;;;18.05;8.55;;;17.10;99.90;;;;;;4947726;28;20416;-65
2023/07/24 02:19:57;;;;;;;16.08;7.43;;;17.40;99.90;;;;;;4946079;28;20036;-66
2023/07/24 02:22:24;;;;;;;14.48;8.15;;;17.10;99.90;;;;;;4950318;28;20142;-66
2023/07/24 02:24:50;;;;;;;16.20;6.53;;;17.00;99.90;;;;;;4958533;28;20046;-66
2023/07/24 02:27:31;;;;;;;17.30;8.00;;;17.20;99.90;;;;;;4945114;28;20046;-66
2023/07/24 02:29:57;;;;;;;16.10;7.15;;;17.50;99.90;;;;;;4947070;28;20043;-66
2023/07/24 02:32:23;;;;;;;17.45;7.63;;;17.00;99.90;;;;;;4944390;28;20462;-65
2023/07/24 02:34:50;;;;;;;13.85;6.85;;;17.10;99.90;;;;;;4948335;28;20089;-66
2023/07/24 02:37:16;;;;;;;19.05;7.25;;;17.10;99.90;;;;;;4960541;28;20042;-66
2023/07/24 02:39:41;;;;;;;16.65;7.03;;;17.40;99.90;;;;;;4958449;28;20039;-65
2023/07/24 02:42:07;;;;;;;14.95;8.27;;;17.50;99.90;;;;;;4952120;28;20580;-65
2023/07/24 02:44:34;;;;;;;15.65;6.68;;;17.50;99.90;;;;;;4954166;28;20043;-66
2023/07/24 02:47:00;;;;;;;16.50;8.48;;;17.10;99.90;;;;;;4941881;28;20059;-66
2023/07/24 02:49:25;;;;;;;19.08;8.88;;;17.30;99.90;;;;;;4945293;28;20039;-66
2023/07/24 02:51:51;;;;;;;16.52;7.82;;;17.90;99.90;;;;;;4948360;28;20517;-67
2023/07/24 02:54:17;;;;;;;13.68;8.10;;;17.00;99.90;;;;;;4952645;28;20135;-66
2023/07/24 02:56:42;;;;;;;16.67;7.78;;;17.30;99.90;;;;;;4945176;28;20469;-65
2023/07/24 02:59:08;;;;;;;20.42;7.25;;;17.20;99.90;;;;;;4954127;28;20036;-66
2023/07/24 03:01:33;;;;;;;23.60;8.02;;;17.50;99.90;;;;;;4958727;28;20407;-66
2023/07/24 03:03:59;;;;;;;15.38;7.40;;;17.30;99.90;;;;;;4960969;28;20077;-66
2023/07/24 03:06:26;;;;;;;14.18;6.88;;;17.40;99.90;;;;;;4945180;28;20493;-66
2023/07/24 03:08:51;;;;;;;15.88;7.00;;;17.90;99.90;;;;;;4958039;28;20035;-66
2023/07/24 03:11:17;;;;;;;12.40;6.63;;;17.50;99.90;;;;;;4944696;28;20521;-66
2023/07/24 03:13:43;;;;;;;15.77;6.25;;;17.20;99.90;;;;;;4951322;28;20037;-67
2023/07/24 03:16:08;;;;;;;14.57;6.72;;;17.40;99.90;;;;;;4947756;28;20110;-67
2023/07/24 03:18:34;;;;;;;15.80;8.02;;;17.30;99.90;;;;;;4939561;28;20039;-67
2023/07/24 03:21:00;;;;;;;15.43;6.35;;;17.70;99.90;;;;;;4948658;28;20127;-67
2023/07/24 03:23:26;;;;;;;14.88;6.70;;;17.70;99.90;;;;;;4938598;28;20469;-66
2023/07/24 03:25:52;;;;;;;15.60;6.53;;;17.10;99.90;;;;;;4951343;28;20039;-68
2023/07/24 03:28:17;;;;;;;15.05;6.97;;;17.70;99.90;;;;;;4945294;28;20556;-67
2023/07/24 03:30:43;;;;;;;11.43;6.05;;;17.50;99.90;;;;;;4945396;28;20039;-66
2023/07/24 03:33:08;;;;;;;14.07;5.68;;;17.70;99.90;;;;;;4951567;28;20086;-66
2023/07/24 03:35:34;;;;;;;14.50;6.20;;;17.40;99.90;;;;;;4955047;28;20119;-67
2023/07/24 03:38:00;;;;;;;14.68;5.57;;;17.40;99.90;;;;;;4964914;28;20125;-67
2023/07/24 03:40:26;;;;;;;14.27;5.93;;;17.50;99.90;;;;;;4950453;28;20035;-66
2023/07/24 03:42:51;;;;;;;17.98;7.10;;;17.60;99.90;;;;;;4945539;28;20039;-66
2023/07/24 03:45:17;;;;;;;12.10;6.28;;;18.00;99.90;;;;;;4951847;28;20163;-65
2023/07/24 03:47:43;;;;;;;14.63;5.78;;;17.00;99.90;;;;;;4942259;28;20516;-66
2023/07/24 03:50:09;;;;;;;14.68;5.88;;;17.20;99.90;;;;;;4961337;28;20038;-66
2023/07/24 03:52:34;;;;;;;16.75;6.75;;;17.50;99.90;;;;;;4953183;28;20063;-66
2023/07/24 03:55:00;;;;;;;14.05;5.50;;;17.20;99.90;;;;;;4948662;28;20043;-66
2023/07/24 03:57:26;;;;;;;13.57;6.18;;;17.30;99.90;;;;;;4947598;28;20281;-64
2023/07/24 03:59:51;;;;;;;16.15;5.97;;;17.40;99.90;;;;;;4940337;28;20425;-66
2023/07/24 04:02:17;;;;;;;16.05;6.00;;;17.60;99.90;;;;;;4950451;28;20512;-68
2023/07/24 04:04:42;;;;;;;17.15;5.13;;;17.90;99.90;;;;;;4948577;28;20031;-67
2023/07/24 04:07:08;;;;;;;12.02;5.82;;;17.00;99.90;;;;;;4940280;28;20047;-68
2023/07/24 04:09:34;;;;;;;10.75;5.05;;;16.80;99.90;;;;;;4961848;28;20086;-69
2023/07/24 04:12:00;;;;;;;14.45;6.00;;;17.10;99.90;;;;;;4952798;28;20043;-69
2023/07/24 04:14:25;;;;;;;13.77;5.00;;;17.30;99.90;;;;;;4957437;28;20040;-69
2023/07/24 04:16:51;;;;;;;15.32;5.68;;;17.40;99.90;;;;;;4950729;28;20083;-69
2023/07/24 04:19:17;;;;;;;14.43;5.82;;;18.00;99.90;;;;;;4944959;28;20044;-69
2023/07/24 04:21:42;;;;;;;14.00;4.97;;;18.00;99.90;;;;;;4946948;28;20036;-68
2023/07/24 04:24:08;;;;;;;12.23;5.47;;;17.90;99.90;;;;;;4944737;28;20489;-68
2023/07/24 04:26:34;;;;;;;12.23;5.93;;;17.50;99.90;;;;;;4955393;28;20649;-68
2023/07/24 04:28:59;;;;;;;11.63;5.13;;;17.50;99.90;;;;;;4948903;28;20402;-66
2023/07/24 04:31:25;;;;;;;19.77;5.82;;;17.10;99.90;;;;;;4953624;28;20032;-68
2023/07/24 04:33:50;;;;;;;12.95;5.00;;;17.30;99.90;;;;;;4955215;28;20190;-68
2023/07/24 04:36:16;;;;;;;13.13;5.30;;;17.30;99.90;;;;;;4954431;28;20066;-68
2023/07/24 04:38:42;;;;;;;12.02;5.55;;;17.20;99.90;;;;;;4960675;28;20566;-68
2023/07/24 04:41:07;;;;;;;14.35;6.45;;;17.20;99.90;;;;;;4954318;28;20035;-69
2023/07/24 04:43:34;;;;;;;13.40;6.10;;;17.50;99.90;;;;;;4950165;28;20071;-68
2023/07/24 04:45:59;;;;;;;17.15;5.00;;;18.10;99.90;;;;;;4959273;28;20122;-69
2023/07/24 04:48:25;;;;;;;13.43;4.82;;;17.90;99.90;;;;;;4954233;28;20546;-68
2023/07/24 04:50:55;;;;;;;18.25;5.20;;;17.60;99.90;;;;;;4955178;28;20502;-66
2023/07/24 04:53:21;;;;;;;11.80;4.97;;;17.40;99.90;;;;;;4948168;28;20061;-68
2023/07/24 04:55:46;;;;;;;12.38;5.38;;;17.50;99.90;;;;;;4945659;28;20130;-68
2023/07/24 04:58:12;;;;;;;14.00;5.05;;;17.60;99.90;;;;;;4938696;28;20048;-68
2023/07/24 05:00:38;;;;;;;14.82;5.78;;;18.00;99.90;;;;;;4952900;28;20038;-68
2023/07/24 05:03:06;;;;;;;13.68;5.55;;;17.40;99.90;;;;;;4948381;28;20067;-67
2023/07/24 05:05:31;;;;;;;19.05;6.40;;;17.20;99.90;;;;;;4952165;28;20062;-69
2023/07/24 05:07:57;;;;;;;16.50;5.72;;;17.40;99.90;;;;;;4947782;28;20055;-69
2023/07/24 05:10:23;;;;;;;15.50;6.18;;;18.20;99.90;;;;;;4941209;28;20039;-68
2023/07/24 05:12:49;;;;;;;15.32;5.70;;;17.50;99.90;;;;;;4946247;28;20031;-65
2023/07/24 05:15:16;;;;;;;14.15;5.30;;;18.10;99.90;;;;;;4958775;28;20497;-68
2023/07/24 05:17:45;;;;;;;16.27;6.80;;;18.00;99.90;;;;;;4961862;28;20067;-68
2023/07/24 05:20:11;;;;;;;13.98;5.90;;;17.40;99.90;;;;;;4967840;28;20523;-68
2023/07/24 05:22:37;;;;;;;19.58;6.40;;;17.20;99.90;;;;;;4960227;28;20043;-68
2023/07/24 05:25:02;;;;;;;19.85;6.00;;;17.40;99.90;;;;;;4961187;28;20046;-68
2023/07/24 05:27:29;;;;;;;15.43;5.72;;;17.50;99.90;;;;;;4965184;28;20039;-68
2023/07/24 05:29:55;;;;;;;14.25;5.60;;;17.70;99.90;;;;;;4956664;28;20071;-65
2023/07/24 05:32:20;;;;;;;11.73;5.43;;;17.40;99.90;;;;;;4960010;28;20081;-68
2023/07/24 05:34:46;;;;;;;16.25;6.70;;;17.70;99.90;;;;;;4940276;28;20047;-68
2023/07/24 05:37:12;;;;;;;17.40;5.90;;;17.50;99.90;;;;;;4957348;28;20403;-68
2023/07/24 05:39:37;;;;;;;17.88;5.85;;;17.20;99.90;;;;;;4952054;28;20177;-67
2023/07/24 05:42:03;;;;;;;13.13;5.10;;;17.50;99.90;;;;;;4959074;28;20075;-68
2023/07/24 05:44:29;;;;;;;15.88;5.95;;;17.80;99.90;;;;;;4960363;28;20035;-68
2023/07/24 05:46:55;;;;;;;20.00;6.38;;;17.60;99.90;;;;;;4962881;28;20049;-68
2023/07/24 05:49:20;;;;;;;15.02;5.30;;;18.00;99.90;;;;;;4944011;28;20042;-67
2023/07/24 05:51:46;;;;;;;14.35;5.68;;;17.30;99.90;;;;;;4946782;28;20062;-68
2023/07/24 05:54:11;;;;;;;19.58;6.60;;;17.80;99.90;;;;;;4961444;28;20071;-68
2023/07/24 05:56:37;;;;;;;15.45;5.43;;;17.60;99.90;;;;;;4963437;28;20117;-68
2023/07/24 05:59:03;;;;;;;17.48;6.75;;;18.10;99.90;;;;;;4958776;28;20466;-69
2023/07/24 06:01:28;;;;;;;15.50;6.20;;;17.70;99.90;;;;;;4944196;28;20102;-66
2023/07/24 06:03:54;;;;;;;15.02;6.72;;;18.40;99.90;;;;;;4943999;28;20083;-69
2023/07/24 06:06:20;;;;;;;13.10;5.60;;;17.90;99.90;;;;;;4959712;28;20051;-69
2023/07/24 06:08:47;;;;;;;13.88;6.45;;;17.90;99.90;;;;;;4942297;28;20050;-68
2023/07/24 06:11:13;;;;;;;12.15;5.90;;;17.60;99.90;;;;;;4952432;28;20509;-69
2023/07/24 06:13:38;;;;;;;17.85;6.03;;;17.90;99.90;;;;;;4949940;28;20050;-66
2023/07/24 06:16:04;;;;;;;15.57;5.90;;;18.70;99.90;;;;;;4951308;28;20043;-69
2023/07/24 06:18:30;;;;;;;15.95;7.05;;;17.90;99.90;;;;;;4942528;28;20039;-68
2023/07/24 06:20:55;;;;;;;16.85;6.82;;;18.20;99.90;;;;;;4940682;28;20040;-69
2023/07/24 06:23:21;;;;;;;11.68;5.25;;;18.10;99.90;;;;;;4949881;28;20054;-69
2023/07/24 06:25:47;;;;;;;14.40;5.93;;;18.30;99.90;;;;;;4946212;28;20044;-69
2023/07/24 06:28:13;;;;;;;13.98;6.28;;;18.80;99.90;;;;;;4933599;28;20577;-69
2023/07/24 06:30:39;;;;;;;19.38;7.75;;;18.80;99.90;;;;;;4938309;28;20052;-66
2023/07/24 06:33:04;;;;;;;19.45;7.18;;;18.70;99.90;;;;;;4937073;28;20066;-69
2023/07/24 06:35:30;;;;;;;13.27;6.90;;;18.80;99.90;;;;;;4940964;28;20036;-69
2023/07/24 06:37:56;;;;;;;18.95;6.43;;;18.10;99.90;;;;;;4951410;28;20182;-69
2023/07/24 06:40:22;;;;;;;21.33;6.40;;;18.20;99.90;;;;;;4947475;28;20035;-69
2023/07/24 06:42:47;;;;;;;13.05;6.38;;;19.00;99.90;;;;;;4951160;28;20082;-69
2023/07/24 06:45:13;;;;;;;20.40;6.90;;;18.30;99.90;;;;;;4953045;28;20493;-67
2023/07/24 06:47:39;;;;;;;18.52;7.53;;;18.30;99.90;;;;;;4948243;28;20038;-69
2023/07/24 06:50:05;;;;;;;16.65;6.65;;;18.60;99.90;;;;;;4951378;28;20039;-69
2023/07/24 06:52:32;;;;;;;16.70;7.40;;;19.00;99.90;;;;;;4944240;28;20165;-68
2023/07/24 06:54:58;;;;;;;17.55;7.68;;;18.70;99.90;;;;;;4943770;28;20066;-69
2023/07/24 06:57:24;;;;;;;13.63;6.60;;;19.00;99.90;;;;;;4943905;28;20063;-69
2023/07/24 06:59:49;;;;;;;14.00;6.45;;;19.20;99.90;;;;;;4947423;28;20059;-69
2023/07/24 07:02:15;;;;;;;16.42;7.15;;;18.40;99.90;;;;;;4942927;28;20046;-69
2023/07/24 07:04:41;;;;;;;14.35;6.63;;;18.70;99.90;;;;;;4947649;28;20097;-69
2023/07/24 07:07:06;;;;;;;18.23;7.80;;;18.90;99.90;;;;;;4955523;28;20133;-68
2023/07/24 07:09:32;;;;;;;19.05;6.22;;;18.80;99.90;;;;;;4939228;28;20039;-69
2023/07/24 07:11:58;;;;;;;14.50;6.15;;;18.40;99.90;;;;;;4955123;28;20473;-67
2023/07/24 07:14:24;;;;;;;14.85;7.05;;;18.90;99.90;;;;;;4944889;28;20039;-67
2023/07/24 07:16:50;;;;;;;16.25;7.47;;;18.50;99.90;;;;;;4946895;28;20127;-67
2023/07/24 07:19:15;;;;;;;14.23;7.30;;;19.30;99.90;;;;;;4943110;28;20114;-66
2023/07/24 07:21:41;;;;;;;17.15;7.63;;;19.30;89.70;;;;;;4946951;28;20031;-67
2023/07/24 07:24:07;;;;;;;14.60;6.57;;;19.00;94.80;;;;;;4953926;28;20035;-68
2023/07/24 07:26:33;;;;;;;15.40;7.35;;;19.00;99.90;;;;;;4952041;28;20125;-66
2023/07/24 07:28:59;;;;;;;14.75;6.82;;;18.90;99.90;;;;;;4950763;28;20043;-68
2023/07/24 07:31:25;;;;;;;22.10;6.25;;;19.30;99.90;;;;;;4952775;28;20043;-68
2023/07/24 07:33:50;;;;;;;18.73;8.65;;;19.00;99.90;;;;;;4952833;28;20066;-69
2023/07/24 07:36:17;;;;;;;22.10;8.18;;;19.30;99.20;;;;;;4944889;28;20043;-68
2023/07/24 07:38:43;;;;;;;14.43;6.95;;;19.10;99.60;;;;;;4941026;28;20043;-68
2023/07/24 07:41:09;;;;;;;15.88;6.68;;;19.00;99.20;;;;;;4950852;28;20375;-69
2023/07/24 07:43:36;;;;;;;13.02;6.90;;;18.60;99.90;;;;;;4956440;28;20114;-68
2023/07/24 07:46:02;;;;;;;22.13;7.57;;;19.20;99.90;;;;;;4954402;28;20449;-68
2023/07/24 07:48:28;;;;;;;12.90;7.20;;;19.70;98.00;;;;;;4952466;28;20051;-68
2023/07/24 07:50:54;;;;;;;14.90;7.07;;;19.20;88.60;;;;;;4946623;28;20038;-69
2023/07/24 07:53:19;;;;;;;13.45;6.68;;;19.30;91.50;;;;;;4940624;28;20106;-68
2023/07/24 07:55:45;;;;;;;17.75;6.82;;;19.30;80.40;;;;;;4953768;28;20521;-68
2023/07/24 07:58:11;;;;;;;18.98;8.73;;;19.70;92.70;;;;;;4954649;28;20552;-69
2023/07/24 08:00:39;;;;;;;11.70;6.32;;;18.90;76.40;;;;;;4945358;28;20044;-68
2023/07/24 08:03:05;;;;;;;17.30;7.07;;;19.40;90.20;;;;;;4949230;28;20549;-69
2023/07/24 08:05:32;;;;;;;15.95;6.10;;;19.20;89.80;;;;;;4950070;28;20039;-68
2023/07/24 08:07:57;;;;;;;13.75;6.18;;;18.90;37.90;;;;;;4946231;28;20046;-69
2023/07/24 08:10:23;;;;;;;11.30;6.30;;;19.50;32.20;;;;;;4947912;28;20047;-69
2023/07/24 08:12:49;;;;;;;15.82;6.78;;;19.40;31.60;;;;;;4941026;28;20118;-69
2023/07/24 08:15:14;;;;;;;11.82;6.53;;;19.20;30.60;;;;;;4961012;28;20118;-69
2023/07/24 08:17:40;;;;;;;15.65;6.35;;;19.40;28.80;;;;;;4940653;28;20036;-68
2023/07/24 08:20:06;;;;;;;17.67;6.82;;;19.20;24.40;;;;;;4958028;28;20121;-68
2023/07/24 08:22:32;;;;;;;19.42;7.05;;;19.50;1.00;;;;;;4953798;28;20090;-68
2023/07/24 08:24:57;;;;;;;19.15;7.85;;;19.70;1.00;;;;;;4959490;28;20410;-68
2023/07/24 08:27:23;;;;;;;16.60;6.43;;;19.30;1.00;;;;;;4941842;28;20046;-68
2023/07/24 08:29:54;;;;;;;12.00;6.40;;;19.60;1.00;;;;;;4944573;28;20046;-68
2023/07/24 08:32:20;;;;;;;12.93;5.97;;;21.10;1.00;;;;;;4940378;28;20044;-66
2023/07/24 08:34:46;;;;;;;11.70;6.03;;;19.70;1.00;;;;;;4931749;28;20390;-66
2023/07/24 08:37:12;;;;;;;13.40;6.22;;;19.80;1.00;;;;;;4955749;28;20035;-67
2023/07/24 08:39:38;;;;;;;11.55;6.40;;;19.70;1.00;;;;;;4955837;28;20064;-67
2023/07/24 08:42:11;;;;;;;9.70;6.13;;;19.80;1.00;;;;;;4953187;28;20071;-66
2023/07/24 08:44:38;;;;;;;17.55;8.10;;;19.70;1.00;;;;;;4942037;28;20050;-66
2023/07/24 08:47:04;;;;;;;20.23;8.77;;;19.50;1.00;;;;;;4951688;28;20043;-64
2023/07/24 08:49:30;;;;;;;18.48;9.23;;;19.60;86.40;;;;;;4947821;28;20042;-64
2023/07/24 08:51:57;;;;;;;16.40;7.30;;;18.80;99.90;;;;;;4949325;28;20228;-62
2023/07/24 08:54:24;;;;;;;12.15;7.38;;;17.80;99.90;;;;;;4956889;28;20046;-64
2023/07/24 08:56:52;;;;;;;12.70;7.78;;;17.80;1.00;;;;;;4947078;28;20057;-65
2023/07/24 08:59:17;;;;;;;13.27;8.57;;;17.20;99.90;;;;;;4941533;28;20032;-65
2023/07/24 09:01:43;;;;;;;15.90;8.95;;;17.30;99.90;;;;;;4941986;28;20042;-65
2023/07/24 09:04:09;;;;;;;17.90;9.18;;;17.20;99.90;;;;;;4961002;28;20086;-64
2023/07/24 09:06:37;;;;;;;15.00;10.45;;;16.80;99.90;;;;;;4967351;28;20039;-65
2023/07/24 09:09:03;;;;;;;20.80;11.23;;;16.90;99.90;;;;;;4950710;28;20047;-65
2023/07/24 09:11:28;;;;;;;17.92;10.23;;;17.30;99.90;;;;;;4953709;28;20400;-66
2023/07/24 09:13:54;;;;;;;15.02;8.77;;;17.10;99.90;;;;;;4946721;28;20134;-65
2023/07/24 09:16:24;;;;;;;19.55;12.00;;;18.00;99.90;;;;;;4953499;28;20417;-66
2023/07/24 09:18:51;;;;;;;18.15;12.30;;;17.80;99.90;;;;;;4956386;28;20090;-65
2023/07/24 09:21:28;;;;;;;19.25;11.45;;;17.60;99.90;;;;;;4959524;28;20066;-65
2023/07/24 09:23:54;;;;;;;15.88;10.15;;;17.40;99.90;;;;;;4950408;28;20106;-65
2023/07/24 09:26:20;;;;;;;17.30;12.82;;;18.10;99.90;;;;;;4951163;28;20043;-64
2023/07/24 09:28:53;;;;;;;16.52;11.27;;;18.00;99.90;;;;;;4943770;28;20150;-66
2023/07/24 09:31:18;;;;;;;16.50;11.43;;;17.30;99.90;;;;;;4944047;28;20505;-65
2023/07/24 09:33:44;;;;;;;16.13;11.52;;;17.30;99.90;;;;;;4945193;28;20059;-66
2023/07/24 09:36:10;;;;;;;19.73;11.27;;;17.40;99.90;;;;;;4953683;28;20040;-66
2023/07/24 09:38:37;;;;;;;16.17;10.95;;;17.00;99.90;;;;;;4954657;28;20371;-66
2023/07/24 09:41:03;;;;;;;15.77;11.38;;;17.60;99.90;;;;;;4952578;28;20488;-65
2023/07/24 09:43:30;;;;;;;14.63;9.90;;;17.10;99.90;;;;;;4940820;28;20516;-65
2023/07/24 09:45:57;;;;;;;14.63;9.65;;;17.70;99.90;;;;;;4953113;28;20118;-65
2023/07/24 09:48:25;;;;;;;14.50;9.88;;;17.10;99.90;;;;;;4945909;28;20498;-66
2023/07/24 09:50:57;;;;;;;12.90;8.55;;;18.10;99.90;;;;;;4949152;28;20051;-66
2023/07/24 09:53:36;;;;;;;15.40;9.48;;;18.10;99.90;;;;;;4945482;28;20517;-66
2023/07/24 09:56:07;;;;;;;12.38;7.32;;;17.50;99.90;;;;;;4956036;28;20047;-66
2023/07/24 09:58:34;;;;;;;12.77;7.60;;;18.30;99.90;;;;;;4952850;28;20117;-66
2023/07/24 10:01:05;;;;;;;12.60;8.20;;;17.80;99.90;;;;;;4957295;28;20047;-66
2023/07/24 10:03:35;;;;;;;12.05;7.55;;;18.00;99.90;;;;;;4950832;28;20370;-64
2023/07/24 10:06:01;;;;;;;9.70;6.38;;;17.60;99.90;;;;;;4946125;28;20054;-65
2023/07/24 10:08:27;;;;;;;12.45;7.70;;;17.60;99.90;;;;;;4943607;28;20048;-66
2023/07/24 10:10:53;;;;;;;11.77;8.05;;;17.40;99.90;;;;;;4954153;28;20043;-66
2023/07/24 10:13:22;;;;;;;12.35;7.80;;;18.00;99.90;;;;;;4958415;28;20416;-65
2023/07/24 10:15:48;;;;;;;13.48;7.95;;;17.50;99.90;;;;;;4949689;28;20051;-66
2023/07/24 10:18:18;;;;;;;11.23;7.10;;;18.60;99.90;;;;;;4923239;29;20047;-66
2023/07/24 10:20:43;;;;;;;10.55;7.30;;;18.40;99.90;;;;;;4950219;28;20502;-66
2023/07/24 10:23:15;;;;;;;10.63;7.93;;;17.80;99.90;;;;;;4941424;28;20086;-67
2023/07/24 10:25:44;;;;;;;11.38;7.13;;;17.60;99.90;;;;;;4947465;28;20145;-66
2023/07/24 10:28:12;;;;;;;10.32;7.10;;;18.50;99.90;;;;;;4948999;28;20101;-66
2023/07/24 10:30:38;;;;;;;11.55;8.57;;;18.40;99.90;;;;;;4955744;28;20051;-67
2023/07/24 10:33:08;;;;;;;13.63;8.05;;;18.30;99.90;;;;;;4936126;28;20130;-67
2023/07/24 10:35:38;;;;;;;12.23;7.30;;;18.20;99.90;;;;;;4938506;28;20040;-66
2023/07/24 10:38:04;;;;;;;11.30;7.10;;;18.60;99.90;;;;;;4953656;28;20044;-66
2023/07/24 10:40:30;;;;;;;11.20;6.93;;;18.40;99.90;;;;;;4939869;28;20194;-66
2023/07/24 10:43:19;;;;;;;10.85;7.35;;;18.30;99.90;;;;;;4950293;28;20417;-66
2023/07/24 10:45:48;;;;;;;9.55;6.32;;;18.30;99.90;;;;;;4923605;29;20063;-66
2023/07/24 10:48:18;;;;;;;10.73;6.07;;;18.10;99.90;;;;;;4946422;28;20043;-66
2023/07/24 10:50:45;;;;;;;11.32;6.28;;;17.70;99.90;;;;;;4944208;28;20043;-67
2023/07/24 10:53:15;;;;;;;13.77;7.18;;;18.60;99.90;;;;;;4937743;28;20043;-67
2023/07/24 10:55:41;;;;;;;10.02;6.72;;;17.90;99.90;;;;;;4940122;28;20315;-67
2023/07/24 10:58:08;;;;;;;11.18;6.32;;;18.80;99.90;;;;;;4941145;28;20049;-67
2023/07/24 11:00:34;;;;;;;9.20;5.50;;;18.60;99.90;;;;;;4945693;28;20114;-67
2023/07/24 11:03:00;;;;;;;8.32;5.30;;;18.70;99.90;;;;;;4936881;28;20131;-67
2023/07/24 11:05:26;;;;;;;8.95;5.13;;;18.20;99.90;;;;;;4928607;28;20146;-67
2023/07/24 11:07:51;;;;;;;7.55;5.38;;;18.70;99.90;;;;;;4965394;28;20053;-66
2023/07/24 11:10:18;;;;;;;7.97;5.32;;;18.90;99.90;;;;;;4964988;28;20070;-66
2023/07/24 11:12:44;;;;;;;9.43;6.05;;;18.70;99.90;;;;;;4958208;28;20260;-67
2023/07/24 11:15:11;;;;;;;9.68;5.72;;;19.00;99.90;;;;;;4965745;28;20047;-66
2023/07/24 11:17:40;;;;;;;9.93;6.20;;;18.90;99.90;;;;;;4957446;28;20083;-66
2023/07/24 11:20:11;;;;;;;8.65;5.22;;;19.30;99.90;;;;;;4936629;28;20039;-67
2023/07/24 11:22:41;;;;;;;9.65;4.97;;;19.00;99.90;;;;;;4938404;28;20111;-66
2023/07/24 11:25:09;;;;;;;10.48;5.32;;;18.40;99.90;;;;;;4949801;28;20413;-67
2023/07/24 11:27:43;;;;;;;8.82;5.53;;;19.00;99.90;;;;;;4959453;28;20118;-67
2023/07/24 11:30:10;;;;;;;7.93;4.82;;;19.10;99.90;;;;;;4959108;28;20090;-67
2023/07/24 11:32:37;;;;;;;8.63;5.05;;;19.30;99.90;;;;;;4950220;28;20043;-66
2023/07/24 11:35:04;;;;;;;7.60;3.80;;;19.40;99.90;;;;;;4943966;28;20043;-67
2023/07/24 11:37:30;;;;;;;9.55;4.38;;;20.00;99.90;;;;;;4954423;28;20039;-67
2023/07/24 11:40:04;;;;;;;5.90;3.33;;;19.70;99.90;;;;;;4949497;28;20178;-68
2023/07/24 11:42:30;;;;;;;6.13;3.13;;;19.40;99.90;;;;;;4953829;28;20537;-67
2023/07/24 11:45:00;;;;;;;6.13;3.38;;;19.60;99.90;;;;;;4943260;28;20429;-68
2023/07/24 11:47:26;;;;;;;7.68;3.30;;;19.40;99.90;;;;;;4950771;28;20043;-67
2023/07/24 11:50:02;;;;;;;4.93;2.15;;;19.50;99.90;;;;;;4958937;28;20378;-67
2023/07/24 11:52:43;;;;;;;5.63;2.03;;;20.10;1.00;;;;;;4929324;28;20131;-67
2023/07/24 11:55:13;;;;;;;4.55;2.00;;;20.00;99.90;;;;;;4951014;28;20071;-67
2023/07/24 11:57:39;;;;;;;5.25;2.10;;;20.10;99.90;;;;;;4948940;28;20045;-67
2023/07/24 12:00:06;;;;;;;4.30;1.90;;;20.10;99.90;;;;;;4949357;28;20047;-67
2023/07/24 12:02:34;;;;;;;4.10;1.60;;;20.10;99.90;;;;;;4944094;28;20413;-67
2023/07/24 12:05:00;;;;;;;4.93;2.00;;;20.30;99.90;;;;;;4949250;28;20050;-67
2023/07/24 12:07:36;;;;;;;4.97;2.15;;;19.90;99.90;;;;;;4949628;28;20054;-67
2023/07/24 12:10:03;;;;;;;4.95;1.58;;;20.30;99.90;;;;;;4954110;28;20209;-67
2023/07/24 12:12:39;;;;;;;4.97;1.73;;;20.60;99.90;;;;;;4952732;28;20049;-68
2023/07/24 12:15:05;;;;;;;4.90;1.65;;;21.00;99.90;;;;;;4952930;28;20047;-67
2023/07/24 12:17:31;;;;;;;4.07;1.38;;;20.90;99.90;;;;;;4969992;28;20053;-68
2023/07/24 12:19:56;;;;;;;4.13;1.42;;;20.40;99.90;;;;;;4951718;28;20493;-67
2023/07/24 12:22:22;;;;;;;4.80;1.30;;;20.70;99.90;;;;;;4953817;28;20465;-67
2023/07/24 12:24:48;;;;;;;4.38;1.40;;;20.30;99.90;;;;;;4950992;28;20454;-67
2023/07/24 12:27:13;;;;;;;4.85;1.70;;;20.10;99.90;;;;;;4951946;28;20039;-68
2023/07/24 12:29:39;;;;;;;7.00;1.40;;;20.40;99.90;;;;;;4951882;28;20050;-67
2023/07/24 12:32:05;;;;;;;6.40;2.10;;;20.00;99.90;;;;;;4952512;28;20090;-67
2023/07/24 12:34:31;;;;;;;4.93;1.65;;;19.80;99.90;;;;;;4955763;28;20047;-67